sensor_id;sensor_type;location;lat;lon;timestamp;temperature;humidity
21891;DHT22;11110;52.386;16.940;2023-05-07T00:01:44;22.40;44.60
21891;DHT22;11110;52.386;16.940;2023-05-07T00:04:13;22.40;44.60
21891;DHT22;11110;52.386;16.940;2023-05-07T00:06:41;22.50;44.70
21891;DHT22;11110;52.386;16.940;2023-05-07T00:09:11;22.50;44.90
21891;DHT22;11110;52.386;16.940;2023-05-07T00:11:39;22.50;45.00
21891;DHT22;11110;52.386;16.940;2023-05-07T00:14:08;22.50;45.00
21891;DHT22;11110;52.386;16.940;2023-05-07T00:16:37;22.40;44.90
21891;DHT22;11110;52.386;16.940;2023-05-07T00:19:05;22.40;44.50
21891;DHT22;11110;52.386;16.940;2023-05-07T00:21:34;22.40;44.60
21891;DHT22;11110;52.386;16.940;2023-05-07T00:24:02;22.50;44.80
21891;DHT22;11110;52.386;16.940;2023-05-07T00:26:32;22.50;44.60
21891;DHT22;11110;52.386;16.940;2023-05-07T00:29:01;22.50;44.40
21891;DHT22;11110;52.386;16.940;2023-05-07T00:31:29;22.50;44.70
21891;DHT22;11110;52.386;16.940;2023-05-07T00:33:58;22.60;44.70
21891;DHT22;11110;52.386;16.940;2023-05-07T00:36:26;22.50;44.60
21891;DHT22;11110;52.386;16.940;2023-05-07T00:38:58;22.50;44.40
21891;DHT22;11110;52.386;16.940;2023-05-07T00:41:27;22.50;44.50
21891;DHT22;11110;52.386;16.940;2023-05-07T00:43:58;22.50;44.50
21891;DHT22;11110;52.386;16.940;2023-05-07T00:46:28;22.50;44.40
21891;DHT22;11110;52.386;16.940;2023-05-07T00:48:57;22.40;44.10
21891;DHT22;11110;52.386;16.940;2023-05-07T00:51:27;22.50;44.10
21891;DHT22;11110;52.386;16.940;2023-05-07T00:53:56;22.50;44.20
21891;DHT22;11110;52.386;16.940;2023-05-07T00:56:25;22.50;43.60
21891;DHT22;11110;52.386;16.940;2023-05-07T00:58:53;22.50;43.60
21891;DHT22;11110;52.386;16.940;2023-05-07T01:01:24;22.50;43.40
21891;DHT22;11110;52.386;16.940;2023-05-07T01:03:53;22.50;43.50
21891;DHT22;11110;52.386;16.940;2023-05-07T01:06:23;22.50;43.90
21891;DHT22;11110;52.386;16.940;2023-05-07T01:08:55;22.50;43.60
21891;DHT22;11110;52.386;16.940;2023-05-07T01:11:24;22.50;44.20
21891;DHT22;11110;52.386;16.940;2023-05-07T01:13:53;22.50;44.60
21891;DHT22;11110;52.386;16.940;2023-05-07T01:16:23;22.40;44.40
21891;DHT22;11110;52.386;16.940;2023-05-07T01:18:52;22.40;44.20
21891;DHT22;11110;52.386;16.940;2023-05-07T01:21:25;22.40;44.50
21891;DHT22;11110;52.386;16.940;2023-05-07T01:23:58;22.40;44.90
21891;DHT22;11110;52.386;16.940;2023-05-07T01:26:28;22.40;44.70
21891;DHT22;11110;52.386;16.940;2023-05-07T01:28:57;22.40;44.60
21891;DHT22;11110;52.386;16.940;2023-05-07T01:31:25;22.40;44.60
21891;DHT22;11110;52.386;16.940;2023-05-07T01:33:54;22.40;44.90
21891;DHT22;11110;52.386;16.940;2023-05-07T01:36:26;22.30;44.30
21891;DHT22;11110;52.386;16.940;2023-05-07T01:38:55;22.30;44.50
21891;DHT22;11110;52.386;16.940;2023-05-07T01:41:26;22.30;44.70
21891;DHT22;11110;52.386;16.940;2023-05-07T01:43:55;22.30;44.90
21891;DHT22;11110;52.386;16.940;2023-05-07T01:46:26;22.30;45.00
21891;DHT22;11110;52.386;16.940;2023-05-07T01:48:55;22.30;44.80
21891;DHT22;11110;52.386;16.940;2023-05-07T01:51:24;22.30;44.80
21891;DHT22;11110;52.386;16.940;2023-05-07T01:53:53;22.30;44.80
21891;DHT22;11110;52.386;16.940;2023-05-07T01:56:25;22.30;44.70
21891;DHT22;11110;52.386;16.940;2023-05-07T01:58:54;22.20;44.60
21891;DHT22;11110;52.386;16.940;2023-05-07T02:01:23;22.20;44.40
21891;DHT22;11110;52.386;16.940;2023-05-07T02:03:51;22.10;44.40
21891;DHT22;11110;52.386;16.940;2023-05-07T02:06:24;22.20;44.40
21891;DHT22;11110;52.386;16.940;2023-05-07T02:08:58;22.10;44.50
21891;DHT22;11110;52.386;16.940;2023-05-07T02:11:28;22.20;44.50
21891;DHT22;11110;52.386;16.940;2023-05-07T02:13:57;22.10;44.50
21891;DHT22;11110;52.386;16.940;2023-05-07T02:16:25;22.10;44.60
21891;DHT22;11110;52.386;16.940;2023-05-07T02:18:54;22.10;44.50
21891;DHT22;11110;52.386;16.940;2023-05-07T02:21:24;22.10;44.40
21891;DHT22;11110;52.386;16.940;2023-05-07T02:23:53;22.10;44.20
21891;DHT22;11110;52.386;16.940;2023-05-07T02:26:22;22.10;44.50
21891;DHT22;11110;52.386;16.940;2023-05-07T02:28:52;22.10;44.40
21891;DHT22;11110;52.386;16.940;2023-05-07T02:31:21;22.10;44.20
21891;DHT22;11110;52.386;16.940;2023-05-07T02:33:49;22.00;44.40
21891;DHT22;11110;52.386;16.940;2023-05-07T02:36:18;22.10;44.50
21891;DHT22;11110;52.386;16.940;2023-05-07T02:38:55;22.10;44.30
21891;DHT22;11110;52.386;16.940;2023-05-07T02:41:23;22.10;44.50
21891;DHT22;11110;52.386;16.940;2023-05-07T02:43:53;22.00;44.00
21891;DHT22;11110;52.386;16.940;2023-05-07T02:46:22;22.10;44.60
21891;DHT22;11110;52.386;16.940;2023-05-07T02:48:58;22.00;44.10
21891;DHT22;11110;52.386;16.940;2023-05-07T02:51:27;22.00;44.60
21891;DHT22;11110;52.386;16.940;2023-05-07T02:53:57;21.10;44.90
21891;DHT22;11110;52.386;16.940;2023-05-07T02:56:28;21.90;44.40
21891;DHT22;11110;52.386;16.940;2023-05-07T02:58:58;21.90;44.40
21891;DHT22;11110;52.386;16.940;2023-05-07T03:01:31;22.00;44.60
21891;DHT22;11110;52.386;16.940;2023-05-07T03:04:04;21.90;44.80
21891;DHT22;11110;52.386;16.940;2023-05-07T03:06:33;21.90;44.80
21891;DHT22;11110;52.386;16.940;2023-05-07T03:09:01;21.90;44.70
21891;DHT22;11110;52.386;16.940;2023-05-07T03:11:30;21.90;44.80
21891;DHT22;11110;52.386;16.940;2023-05-07T03:14:00;21.90;45.00
21891;DHT22;11110;52.386;16.940;2023-05-07T03:16:29;21.90;45.00
21891;DHT22;11110;52.386;16.940;2023-05-07T03:18:58;21.90;44.90
21891;DHT22;11110;52.386;16.940;2023-05-07T03:21:27;21.90;44.40
21891;DHT22;11110;52.386;16.940;2023-05-07T03:23:55;21.90;44.30
21891;DHT22;11110;52.386;16.940;2023-05-07T03:26:24;21.90;44.10
21891;DHT22;11110;52.386;16.940;2023-05-07T03:28:53;21.90;44.50
21891;DHT22;11110;52.386;16.940;2023-05-07T03:31:23;21.90;44.90
21891;DHT22;11110;52.386;16.940;2023-05-07T03:33:53;21.90;44.80
21891;DHT22;11110;52.386;16.940;2023-05-07T03:36:23;22.00;45.30
21891;DHT22;11110;52.386;16.940;2023-05-07T03:38:54;22.00;44.70
21891;DHT22;11110;52.386;16.940;2023-05-07T03:41:26;21.90;44.70
21891;DHT22;11110;52.386;16.940;2023-05-07T03:43:56;21.90;44.50
21891;DHT22;11110;52.386;16.940;2023-05-07T03:46:26;22.00;44.50
21891;DHT22;11110;52.386;16.940;2023-05-07T03:48:55;22.00;44.20
21891;DHT22;11110;52.386;16.940;2023-05-07T03:51:24;22.00;44.30
21891;DHT22;11110;52.386;16.940;2023-05-07T03:53:52;22.00;44.30
21891;DHT22;11110;52.386;16.940;2023-05-07T03:56:22;22.10;44.10
21891;DHT22;11110;52.386;16.940;2023-05-07T03:58:55;22.10;44.40
21891;DHT22;11110;52.386;16.940;2023-05-07T04:01:23;22.00;44.40
21891;DHT22;11110;52.386;16.940;2023-05-07T04:03:53;22.00;44.10
21891;DHT22;11110;52.386;16.940;2023-05-07T04:06:22;22.00;44.00
21891;DHT22;11110;52.386;16.940;2023-05-07T04:08:51;22.10;44.10
21891;DHT22;11110;52.386;16.940;2023-05-07T04:11:19;22.10;44.20
21891;DHT22;11110;52.386;16.940;2023-05-07T04:13:48;22.10;44.20
21891;DHT22;11110;52.386;16.940;2023-05-07T04:16:20;22.10;44.00
21891;DHT22;11110;52.386;16.940;2023-05-07T04:18:49;22.10;43.80
21891;DHT22;11110;52.386;16.940;2023-05-07T04:21:20;22.10;43.80
21891;DHT22;11110;52.386;16.940;2023-05-07T04:23:50;22.20;44.50
21891;DHT22;11110;52.386;16.940;2023-05-07T04:26:19;22.20;44.60
21891;DHT22;11110;52.386;16.940;2023-05-07T04:28:48;22.10;44.20
21891;DHT22;11110;52.386;16.940;2023-05-07T04:31:17;22.20;44.30
21891;DHT22;11110;52.386;16.940;2023-05-07T04:33:50;22.20;44.40
21891;DHT22;11110;52.386;16.940;2023-05-07T04:36:21;22.20;44.20
21891;DHT22;11110;52.386;16.940;2023-05-07T04:38:56;22.20;44.10
21891;DHT22;11110;52.386;16.940;2023-05-07T04:41:25;22.20;44.00
21891;DHT22;11110;52.386;16.940;2023-05-07T04:43:53;22.20;44.00
21891;DHT22;11110;52.386;16.940;2023-05-07T04:46:24;22.20;44.30
21891;DHT22;11110;52.386;16.940;2023-05-07T04:48:55;22.20;44.10
21891;DHT22;11110;52.386;16.940;2023-05-07T04:51:25;22.20;43.90
21891;DHT22;11110;52.386;16.940;2023-05-07T04:53:55;22.30;44.00
21891;DHT22;11110;52.386;16.940;2023-05-07T04:56:24;22.20;44.00
21891;DHT22;11110;52.386;16.940;2023-05-07T04:58:55;22.20;44.00
21891;DHT22;11110;52.386;16.940;2023-05-07T05:01:24;22.20;44.10
21891;DHT22;11110;52.386;16.940;2023-05-07T05:03:52;22.20;44.00
21891;DHT22;11110;52.386;16.940;2023-05-07T05:06:21;22.30;44.20
21891;DHT22;11110;52.386;16.940;2023-05-07T05:08:52;22.30;44.50
21891;DHT22;11110;52.386;16.940;2023-05-07T05:11:21;22.40;44.20
21891;DHT22;11110;52.386;16.940;2023-05-07T05:13:49;22.30;44.10
21891;DHT22;11110;52.386;16.940;2023-05-07T05:16:20;22.40;44.10
21891;DHT22;11110;52.386;16.940;2023-05-07T05:18:51;22.40;43.70
21891;DHT22;11110;52.386;16.940;2023-05-07T05:21:21;22.50;43.90
21891;DHT22;11110;52.386;16.940;2023-05-07T05:23:55;22.50;43.70
21891;DHT22;11110;52.386;16.940;2023-05-07T05:26:25;22.60;43.60
21891;DHT22;11110;52.386;16.940;2023-05-07T05:28:53;22.60;43.60
21891;DHT22;11110;52.386;16.940;2023-05-07T05:31:24;22.60;43.40
21891;DHT22;11110;52.386;16.940;2023-05-07T05:33:52;22.70;43.10
21891;DHT22;11110;52.386;16.940;2023-05-07T05:36:21;22.70;43.20
21891;DHT22;11110;52.386;16.940;2023-05-07T05:38:53;22.70;43.80
21891;DHT22;11110;52.386;16.940;2023-05-07T05:41:23;22.70;42.80
21891;DHT22;11110;52.386;16.940;2023-05-07T05:43:52;22.80;43.30
21891;DHT22;11110;52.386;16.940;2023-05-07T05:46:21;22.80;43.00
21891;DHT22;11110;52.386;16.940;2023-05-07T05:48:51;22.80;42.50
21891;DHT22;11110;52.386;16.940;2023-05-07T05:51:20;22.90;42.40
21891;DHT22;11110;52.386;16.940;2023-05-07T05:53:49;22.90;42.30
21891;DHT22;11110;52.386;16.940;2023-05-07T05:56:19;22.90;42.50
21891;DHT22;11110;52.386;16.940;2023-05-07T05:58:49;22.90;42.40
21891;DHT22;11110;52.386;16.940;2023-05-07T06:01:18;22.90;42.70
21891;DHT22;11110;52.386;16.940;2023-05-07T06:03:49;23.00;42.10
21891;DHT22;11110;52.386;16.940;2023-05-07T06:06:18;22.90;42.40
21891;DHT22;11110;52.386;16.940;2023-05-07T06:08:46;22.90;42.70
21891;DHT22;11110;52.386;16.940;2023-05-07T06:11:20;22.90;42.90
21891;DHT22;11110;52.386;16.940;2023-05-07T06:13:50;22.90;42.50
21891;DHT22;11110;52.386;16.940;2023-05-07T06:16:19;22.80;42.80
21891;DHT22;11110;52.386;16.940;2023-05-07T06:18:48;22.80;43.00
21891;DHT22;11110;52.386;16.940;2023-05-07T06:21:16;22.90;43.00
21891;DHT22;11110;52.386;16.940;2023-05-07T06:23:45;22.90;42.60
21891;DHT22;11110;52.386;16.940;2023-05-07T06:26:14;22.90;42.30
21891;DHT22;11110;52.386;16.940;2023-05-07T06:28:46;23.00;42.20
21891;DHT22;11110;52.386;16.940;2023-05-07T06:31:18;22.90;42.10
21891;DHT22;11110;52.386;16.940;2023-05-07T06:33:59;23.00;42.30
21891;DHT22;11110;52.386;16.940;2023-05-07T06:36:34;23.00;42.20
21891;DHT22;11110;52.386;16.940;2023-05-07T06:39:22;23.00;42.00
21891;DHT22;11110;52.386;16.940;2023-05-07T06:41:52;23.00;42.00
21891;DHT22;11110;52.386;16.940;2023-05-07T06:44:27;22.90;42.10
21891;DHT22;11110;52.386;16.940;2023-05-07T06:47:06;23.00;41.90
21891;DHT22;11110;52.386;16.940;2023-05-07T06:49:38;23.00;42.30
21891;DHT22;11110;52.386;16.940;2023-05-07T06:52:07;23.00;42.10
21891;DHT22;11110;52.386;16.940;2023-05-07T06:54:35;23.00;42.00
21891;DHT22;11110;52.386;16.940;2023-05-07T06:57:04;23.00;42.00
21891;DHT22;11110;52.386;16.940;2023-05-07T06:59:33;23.10;42.20
21891;DHT22;11110;52.386;16.940;2023-05-07T07:02:01;23.10;41.90
21891;DHT22;11110;52.386;16.940;2023-05-07T07:04:31;23.20;41.50
21891;DHT22;11110;52.386;16.940;2023-05-07T07:07:04;23.20;41.70
21891;DHT22;11110;52.386;16.940;2023-05-07T07:09:33;23.20;42.00
21891;DHT22;11110;52.386;16.940;2023-05-07T07:12:04;23.30;42.10
21891;DHT22;11110;52.386;16.940;2023-05-07T07:14:33;23.30;41.50
21891;DHT22;11110;52.386;16.940;2023-05-07T07:17:02;23.30;41.90
21891;DHT22;11110;52.386;16.940;2023-05-07T07:19:33;23.40;41.90
21891;DHT22;11110;52.386;16.940;2023-05-07T07:22:03;23.40;41.40
21891;DHT22;11110;52.386;16.940;2023-05-07T07:24:32;23.30;41.20
21891;DHT22;11110;52.386;16.940;2023-05-07T07:27:04;23.40;41.40
21891;DHT22;11110;52.386;16.940;2023-05-07T07:29:34;23.40;41.40
21891;DHT22;11110;52.386;16.940;2023-05-07T07:32:03;23.40;42.20
21891;DHT22;11110;52.386;16.940;2023-05-07T07:34:33;23.50;41.90
21891;DHT22;11110;52.386;16.940;2023-05-07T07:37:03;23.60;41.60
21891;DHT22;11110;52.386;16.940;2023-05-07T07:39:34;23.70;41.00
21891;DHT22;11110;52.386;16.940;2023-05-07T07:42:06;23.70;41.20
21891;DHT22;11110;52.386;16.940;2023-05-07T07:44:35;23.80;41.10
21891;DHT22;11110;52.386;16.940;2023-05-07T07:47:07;23.90;41.30
21891;DHT22;11110;52.386;16.940;2023-05-07T07:49:38;24.00;41.40
21891;DHT22;11110;52.386;16.940;2023-05-07T07:52:08;24.00;41.30
21891;DHT22;11110;52.386;16.940;2023-05-07T07:54:38;24.10;40.80
21891;DHT22;11110;52.386;16.940;2023-05-07T07:57:07;24.10;41.20
21891;DHT22;11110;52.386;16.940;2023-05-07T07:59:36;24.10;41.00
21891;DHT22;11110;52.386;16.940;2023-05-07T08:02:05;24.10;40.80
21891;DHT22;11110;52.386;16.940;2023-05-07T08:04:34;24.00;41.10
21891;DHT22;11110;52.386;16.940;2023-05-07T08:07:08;24.20;40.70
21891;DHT22;11110;52.386;16.940;2023-05-07T08:09:40;24.20;41.20
21891;DHT22;11110;52.386;16.940;2023-05-07T08:12:10;24.30;41.00
21891;DHT22;11110;52.386;16.940;2023-05-07T08:14:39;24.30;41.20
21891;DHT22;11110;52.386;16.940;2023-05-07T08:17:08;24.40;40.80
21891;DHT22;11110;52.386;16.940;2023-05-07T08:19:37;24.50;40.70
21891;DHT22;11110;52.386;16.940;2023-05-07T08:22:10;24.40;39.80
21891;DHT22;11110;52.386;16.940;2023-05-07T08:24:39;24.50;40.90
21891;DHT22;11110;52.386;16.940;2023-05-07T08:27:07;24.50;40.30
21891;DHT22;11110;52.386;16.940;2023-05-07T08:29:36;24.50;40.30
21891;DHT22;11110;52.386;16.940;2023-05-07T08:32:05;24.60;40.20
21891;DHT22;11110;52.386;16.940;2023-05-07T08:34:33;24.60;39.90
21891;DHT22;11110;52.386;16.940;2023-05-07T08:37:04;24.70;39.60
21891;DHT22;11110;52.386;16.940;2023-05-07T08:39:35;24.70;39.40
21891;DHT22;11110;52.386;16.940;2023-05-07T08:42:09;24.70;39.60
21891;DHT22;11110;52.386;16.940;2023-05-07T08:44:40;24.70;39.70
21891;DHT22;11110;52.386;16.940;2023-05-07T08:47:09;24.70;40.00
21891;DHT22;11110;52.386;16.940;2023-05-07T08:49:38;24.70;39.60
21891;DHT22;11110;52.386;16.940;2023-05-07T08:52:07;24.70;40.30
21891;DHT22;11110;52.386;16.940;2023-05-07T08:54:39;24.80;40.10
21891;DHT22;11110;52.386;16.940;2023-05-07T08:57:10;24.80;39.60
21891;DHT22;11110;52.386;16.940;2023-05-07T08:59:39;24.90;39.00
21891;DHT22;11110;52.386;16.940;2023-05-07T09:02:10;24.90;39.00
21891;DHT22;11110;52.386;16.940;2023-05-07T09:04:40;24.90;39.20
21891;DHT22;11110;52.386;16.940;2023-05-07T09:07:09;24.80;39.90
21891;DHT22;11110;52.386;16.940;2023-05-07T09:09:44;24.80;39.60
21891;DHT22;11110;52.386;16.940;2023-05-07T09:12:13;24.90;39.30
21891;DHT22;11110;52.386;16.940;2023-05-07T09:14:42;24.90;39.30
21891;DHT22;11110;52.386;16.940;2023-05-07T09:17:11;25.00;39.20
21891;DHT22;11110;52.386;16.940;2023-05-07T09:19:40;25.00;39.10
21891;DHT22;11110;52.386;16.940;2023-05-07T09:22:08;25.00;39.00
21891;DHT22;11110;52.386;16.940;2023-05-07T09:24:49;25.10;39.10
21891;DHT22;11110;52.386;16.940;2023-05-07T09:27:21;25.20;39.10
21891;DHT22;11110;52.386;16.940;2023-05-07T09:29:50;25.30;38.90
21891;DHT22;11110;52.386;16.940;2023-05-07T09:32:19;25.40;38.80
21891;DHT22;11110;52.386;16.940;2023-05-07T09:34:47;25.40;38.80
21891;DHT22;11110;52.386;16.940;2023-05-07T09:37:19;25.40;38.90
21891;DHT22;11110;52.386;16.940;2023-05-07T09:39:49;25.50;38.30
21891;DHT22;11110;52.386;16.940;2023-05-07T09:42:25;25.60;38.80
21891;DHT22;11110;52.386;16.940;2023-05-07T09:44:59;25.70;38.20
21891;DHT22;11110;52.386;16.940;2023-05-07T09:47:38;25.70;38.00
21891;DHT22;11110;52.386;16.940;2023-05-07T09:50:08;25.70;38.00
21891;DHT22;11110;52.386;16.940;2023-05-07T09:52:40;25.70;37.90
21891;DHT22;11110;52.386;16.940;2023-05-07T09:55:12;25.80;38.00
21891;DHT22;11110;52.386;16.940;2023-05-07T09:57:43;25.80;38.10
21891;DHT22;11110;52.386;16.940;2023-05-07T10:00:13;25.80;37.60
21891;DHT22;11110;52.386;16.940;2023-05-07T10:02:49;25.80;37.60
21891;DHT22;11110;52.386;16.940;2023-05-07T10:05:27;25.90;37.30
21891;DHT22;11110;52.386;16.940;2023-05-07T10:07:59;25.90;37.30
21891;DHT22;11110;52.386;16.940;2023-05-07T10:10:34;25.90;37.20
21891;DHT22;11110;52.386;16.940;2023-05-07T10:13:06;26.00;37.50
21891;DHT22;11110;52.386;16.940;2023-05-07T10:15:41;26.00;37.40
21891;DHT22;11110;52.386;16.940;2023-05-07T10:18:12;26.10;37.20
21891;DHT22;11110;52.386;16.940;2023-05-07T10:20:45;26.10;37.00
21891;DHT22;11110;52.386;16.940;2023-05-07T10:23:20;26.20;36.10
21891;DHT22;11110;52.386;16.940;2023-05-07T10:25:52;26.20;36.80
21891;DHT22;11110;52.386;16.940;2023-05-07T10:28:32;26.10;37.20
21891;DHT22;11110;52.386;16.940;2023-05-07T10:31:11;26.20;36.90
21891;DHT22;11110;52.386;16.940;2023-05-07T10:33:47;26.20;37.40
21891;DHT22;11110;52.386;16.940;2023-05-07T10:36:18;26.30;37.10
21891;DHT22;11110;52.386;16.940;2023-05-07T10:38:49;26.30;36.90
21891;DHT22;11110;52.386;16.940;2023-05-07T10:41:19;26.30;37.40
21891;DHT22;11110;52.386;16.940;2023-05-07T10:43:49;26.40;37.30
21891;DHT22;11110;52.386;16.940;2023-05-07T10:46:28;26.40;36.90
21891;DHT22;11110;52.386;16.940;2023-05-07T10:49:07;26.40;36.50
21891;DHT22;11110;52.386;16.940;2023-05-07T10:51:41;26.50;36.60
21891;DHT22;11110;52.386;16.940;2023-05-07T10:54:23;26.50;37.60
21891;DHT22;11110;52.386;16.940;2023-05-07T11:00:44;26.60;37.70
21891;DHT22;11110;52.386;16.940;2023-05-07T11:03:22;26.70;37.30
21891;DHT22;11110;52.386;16.940;2023-05-07T11:06:10;26.70;37.30
21891;DHT22;11110;52.386;16.940;2023-05-07T11:08:56;26.60;36.30
21891;DHT22;11110;52.386;16.940;2023-05-07T11:11:53;26.60;36.70
21891;DHT22;11110;52.386;16.940;2023-05-07T11:14:44;26.60;36.80
21891;DHT22;11110;52.386;16.940;2023-05-07T11:17:22;26.60;36.40
21891;DHT22;11110;52.386;16.940;2023-05-07T11:19:58;26.60;36.10
21891;DHT22;11110;52.386;16.940;2023-05-07T11:22:49;26.70;36.10
21891;DHT22;11110;52.386;16.940;2023-05-07T11:25:36;26.70;36.50
21891;DHT22;11110;52.386;16.940;2023-05-07T11:28:15;26.70;36.20
21891;DHT22;11110;52.386;16.940;2023-05-07T11:30:56;26.80;35.30
21891;DHT22;11110;52.386;16.940;2023-05-07T11:33:27;26.80;36.20
21891;DHT22;11110;52.386;16.940;2023-05-07T11:35:57;26.80;36.20
21891;DHT22;11110;52.386;16.940;2023-05-07T11:38:35;26.90;36.10
21891;DHT22;11110;52.386;16.940;2023-05-07T11:41:04;26.90;35.90
21891;DHT22;11110;52.386;16.940;2023-05-07T11:43:33;26.80;36.10
21891;DHT22;11110;52.386;16.940;2023-05-07T11:46:07;26.80;35.40
21891;DHT22;11110;52.386;16.940;2023-05-07T11:48:38;26.80;35.40
21891;DHT22;11110;52.386;16.940;2023-05-07T11:51:07;26.80;35.00
21891;DHT22;11110;52.386;16.940;2023-05-07T11:53:37;26.80;35.50
21891;DHT22;11110;52.386;16.940;2023-05-07T11:56:09;26.80;35.30
21891;DHT22;11110;52.386;16.940;2023-05-07T11:58:39;26.90;34.70
21891;DHT22;11110;52.386;16.940;2023-05-07T12:01:08;26.80;34.90
21891;DHT22;11110;52.386;16.940;2023-05-07T12:03:40;26.80;35.20
21891;DHT22;11110;52.386;16.940;2023-05-07T12:06:11;26.80;35.80
21891;DHT22;11110;52.386;16.940;2023-05-07T12:08:41;26.80;35.60
21891;DHT22;11110;52.386;16.940;2023-05-07T12:11:15;26.80;35.30
21891;DHT22;11110;52.386;16.940;2023-05-07T12:13:44;26.80;35.40
21891;DHT22;11110;52.386;16.940;2023-05-07T12:16:13;26.80;34.80
21891;DHT22;11110;52.386;16.940;2023-05-07T12:18:44;26.90;34.30
21891;DHT22;11110;52.386;16.940;2023-05-07T12:21:13;26.90;34.50
21891;DHT22;11110;52.386;16.940;2023-05-07T12:23:42;26.90;34.90
21891;DHT22;11110;52.386;16.940;2023-05-07T12:26:11;26.90;34.60
21891;DHT22;11110;52.386;16.940;2023-05-07T12:28:39;26.90;34.80
21891;DHT22;11110;52.386;16.940;2023-05-07T12:31:08;26.90;35.00
21891;DHT22;11110;52.386;16.940;2023-05-07T12:33:38;27.00;34.80
21891;DHT22;11110;52.386;16.940;2023-05-07T12:36:12;27.00;34.70
21891;DHT22;11110;52.386;16.940;2023-05-07T12:38:41;26.90;35.20
21891;DHT22;11110;52.386;16.940;2023-05-07T12:41:10;26.90;34.90
21891;DHT22;11110;52.386;16.940;2023-05-07T12:43:39;26.90;35.00
21891;DHT22;11110;52.386;16.940;2023-05-07T12:46:08;26.80;35.60
21891;DHT22;11110;52.386;16.940;2023-05-07T12:48:41;26.80;35.00
21891;DHT22;11110;52.386;16.940;2023-05-07T12:51:13;26.80;34.60
21891;DHT22;11110;52.386;16.940;2023-05-07T12:53:43;26.80;35.00
21891;DHT22;11110;52.386;16.940;2023-05-07T12:56:11;26.80;34.90
21891;DHT22;11110;52.386;16.940;2023-05-07T12:58:40;26.90;35.70
21891;DHT22;11110;52.386;16.940;2023-05-07T13:01:09;26.90;35.50
21891;DHT22;11110;52.386;16.940;2023-05-07T13:03:48;27.00;35.60
21891;DHT22;11110;52.386;16.940;2023-05-07T13:06:19;27.00;35.20
21891;DHT22;11110;52.386;16.940;2023-05-07T13:08:47;27.20;35.60
21891;DHT22;11110;52.386;16.940;2023-05-07T13:11:15;27.40;35.50
21891;DHT22;11110;52.386;16.940;2023-05-07T13:13:44;27.50;34.90
21891;DHT22;11110;52.386;16.940;2023-05-07T13:16:12;27.80;34.80
21891;DHT22;11110;52.386;16.940;2023-05-07T13:18:41;27.90;34.70
21891;DHT22;11110;52.386;16.940;2023-05-07T13:21:11;27.90;34.20
21891;DHT22;11110;52.386;16.940;2023-05-07T13:23:42;28.00;33.30
21891;DHT22;11110;52.386;16.940;2023-05-07T13:26:10;28.20;33.00
21891;DHT22;11110;52.386;16.940;2023-05-07T13:28:53;28.20;32.20
21891;DHT22;11110;52.386;16.940;2023-05-07T13:31:21;28.40;33.40
21891;DHT22;11110;52.386;16.940;2023-05-07T13:33:51;28.40;32.20
21891;DHT22;11110;52.386;16.940;2023-05-07T13:36:19;28.40;31.60
21891;DHT22;11110;52.386;16.940;2023-05-07T13:38:50;28.40;32.10
21891;DHT22;11110;52.386;16.940;2023-05-07T13:41:19;28.50;31.60
21891;DHT22;11110;52.386;16.940;2023-05-07T13:43:48;28.40;30.90
21891;DHT22;11110;52.386;16.940;2023-05-07T13:46:17;28.50;31.50
21891;DHT22;11110;52.386;16.940;2023-05-07T13:48:46;28.50;31.60
21891;DHT22;11110;52.386;16.940;2023-05-07T13:51:14;28.50;31.50
21891;DHT22;11110;52.386;16.940;2023-05-07T13:53:42;28.50;32.00
21891;DHT22;11110;52.386;16.940;2023-05-07T13:56:12;28.50;32.20
21891;DHT22;11110;52.386;16.940;2023-05-07T13:58:41;28.40;32.10
21891;DHT22;11110;52.386;16.940;2023-05-07T14:01:26;28.30;31.70
21891;DHT22;11110;52.386;16.940;2023-05-07T14:03:55;28.20;32.30
21891;DHT22;11110;52.386;16.940;2023-05-07T14:06:24;28.10;32.90
21891;DHT22;11110;52.386;16.940;2023-05-07T14:08:53;28.10;32.40
21891;DHT22;11110;52.386;16.940;2023-05-07T14:11:23;28.10;32.60
21891;DHT22;11110;52.386;16.940;2023-05-07T14:13:52;28.10;32.20
21891;DHT22;11110;52.386;16.940;2023-05-07T14:16:20;28.00;32.50
21891;DHT22;11110;52.386;16.940;2023-05-07T14:18:49;28.10;31.90
21891;DHT22;11110;52.386;16.940;2023-05-07T14:21:17;28.00;32.60
21891;DHT22;11110;52.386;16.940;2023-05-07T14:23:46;27.90;33.20
21891;DHT22;11110;52.386;16.940;2023-05-07T14:26:15;27.90;32.40
21891;DHT22;11110;52.386;16.940;2023-05-07T14:28:45;27.80;32.80
21891;DHT22;11110;52.386;16.940;2023-05-07T14:31:13;28.00;34.30
21891;DHT22;11110;52.386;16.940;2023-05-07T14:33:42;28.00;34.00
21891;DHT22;11110;52.386;16.940;2023-05-07T14:36:10;28.20;32.70
21891;DHT22;11110;52.386;16.940;2023-05-07T14:38:39;28.40;32.30
21891;DHT22;11110;52.386;16.940;2023-05-07T14:41:07;28.50;32.20
21891;DHT22;11110;52.386;16.940;2023-05-07T14:43:36;28.60;32.40
21891;DHT22;11110;52.386;16.940;2023-05-07T14:46:06;28.80;32.00
21891;DHT22;11110;52.386;16.940;2023-05-07T14:48:34;29.00;30.90
21891;DHT22;11110;52.386;16.940;2023-05-07T14:51:03;29.10;30.60
21891;DHT22;11110;52.386;16.940;2023-05-07T14:53:31;29.20;30.70
21891;DHT22;11110;52.386;16.940;2023-05-07T14:56:00;29.20;30.40
21891;DHT22;11110;52.386;16.940;2023-05-07T14:58:28;29.20;30.00
21891;DHT22;11110;52.386;16.940;2023-05-07T15:00:57;29.20;30.70
21891;DHT22;11110;52.386;16.940;2023-05-07T15:03:27;29.20;31.00
21891;DHT22;11110;52.386;16.940;2023-05-07T15:05:56;29.20;31.40
21891;DHT22;11110;52.386;16.940;2023-05-07T15:08:25;29.10;31.50
21891;DHT22;11110;52.386;16.940;2023-05-07T15:10:53;29.10;31.50
21891;DHT22;11110;52.386;16.940;2023-05-07T15:13:22;29.10;31.40
21891;DHT22;11110;52.386;16.940;2023-05-07T15:15:51;29.10;31.40
21891;DHT22;11110;52.386;16.940;2023-05-07T15:18:19;29.10;31.30
21891;DHT22;11110;52.386;16.940;2023-05-07T15:20:50;29.10;31.30
21891;DHT22;11110;52.386;16.940;2023-05-07T15:23:19;29.00;31.70
21891;DHT22;11110;52.386;16.940;2023-05-07T15:25:49;29.00;31.20
21891;DHT22;11110;52.386;16.940;2023-05-07T15:28:19;29.10;30.80
21891;DHT22;11110;52.386;16.940;2023-05-07T15:30:47;29.10;31.30
21891;DHT22;11110;52.386;16.940;2023-05-07T15:33:15;29.20;31.50
21891;DHT22;11110;52.386;16.940;2023-05-07T15:35:44;28.90;31.00
21891;DHT22;11110;52.386;16.940;2023-05-07T15:38:14;28.80;31.20
21891;DHT22;11110;52.386;16.940;2023-05-07T15:40:43;28.90;31.50